Terminal Aerodrome Forecast
Issued by NWS

Home | Current Version | Previous Version | Text Only | Print | Product List | Glossary On
Versions: 1 2 3 4 5 6 7 8 9 10 11 12 13 14 15 16 17 18
000
FTUS41 KPHI 291743
TAFMIV
TAF
KMIV 291743Z 2918/3018 VRB03KT P6SM SCT120
     FM292000 13006KT P6SM FEW050
     FM300000 17005KT P6SM SCT250
     FM300900 18003KT 4SM BR SCT015 BKN030
     FM301600 20009G16KT P6SM SCT050=

USA.gov is the U.S. government's official web portal to all federal, state and local government web resources and services.